Time;durP1;ratioP1;P1;durP2;ratioP2;P2;SDS_P1;SDS_P2;PMS_P1;PMS_P2;Temp;Humidity;BMP_temperature;BMP_pressure;BME280_temperature;BME280_humidity;BME280_pressure;Samples;Min_cycle;Max_cycle;Signal;HPM_P1;HPM_P2
2022/01/09 00:01:40;;;;;;;6.07;1.42;;;6.70;99.90;;;;;;5055446;28;20111;-82
2022/01/09 00:04:05;;;;;;;6.32;1.40;;;6.80;99.90;;;;;;5055446;28;20036;-82
2022/01/09 00:06:31;;;;;;;6.70;1.23;;;6.80;99.90;;;;;;5055354;28;20044;-83
2022/01/09 00:08:56;;;;;;;7.47;1.27;;;6.70;99.90;;;;;;5055286;28;20045;-83
2022/01/09 00:11:26;;;;;;;7.85;1.27;;;6.80;99.90;;;;;;5054300;28;20440;-83
2022/01/09 00:13:53;;;;;;;4.72;1.30;;;6.80;99.90;;;;;;5055436;28;20017;-83
2022/01/09 00:16:20;;;;;;;3.80;1.00;;;6.80;99.90;;;;;;5054097;28;20481;-83
2022/01/09 00:18:46;;;;;;;6.38;1.58;;;6.80;99.90;;;;;;5055505;28;20024;-83
2022/01/09 00:21:12;;;;;;;5.05;1.40;;;6.80;99.90;;;;;;5053844;28;20086;-82
2022/01/09 00:23:38;;;;;;;12.00;2.83;;;6.90;99.90;;;;;;5055155;28;20033;-82
2022/01/09 00:26:03;;;;;;;9.65;1.75;;;6.80;99.90;;;;;;5055141;28;20017;-82
2022/01/09 00:28:29;;;;;;;10.88;2.55;;;6.90;99.90;;;;;;5055057;28;20023;-82
2022/01/09 00:30:54;;;;;;;7.93;1.75;;;6.80;99.90;;;;;;5054073;28;20029;-82
2022/01/09 00:33:21;;;;;;;9.25;1.90;;;6.90;99.90;;;;;;5054937;28;20025;-82
2022/01/09 00:35:48;;;;;;;4.28;1.65;;;6.90;99.90;;;;;;5053560;28;20017;-82
2022/01/09 00:38:14;;;;;;;7.03;1.60;;;6.90;99.90;;;;;;5055137;28;20017;-82
2022/01/09 00:40:40;;;;;;;10.32;1.63;;;6.90;99.90;;;;;;5054492;28;20025;-82
2022/01/09 00:43:09;;;;;;;10.80;2.00;;;6.80;99.90;;;;;;5054676;28;20021;-82
2022/01/09 00:45:36;;;;;;;8.63;1.73;;;6.80;99.90;;;;;;5054681;28;20028;-83
2022/01/09 00:48:02;;;;;;;11.30;2.13;;;6.90;99.90;;;;;;5054527;28;20469;-82
2022/01/09 00:50:28;;;;;;;9.68;1.90;;;6.80;99.90;;;;;;5054605;28;20029;-82
2022/01/09 00:52:53;;;;;;;16.30;1.95;;;6.90;99.90;;;;;;5054519;28;20079;-82
2022/01/09 00:55:19;;;;;;;12.80;1.75;;;6.80;99.90;;;;;;5054239;28;20100;-83
2022/01/09 00:57:45;;;;;;;12.38;1.98;;;6.80;99.90;;;;;;5054410;28;20040;-83
2022/01/09 01:00:12;;;;;;;12.00;1.85;;;6.80;99.90;;;;;;5054489;28;20025;-82
2022/01/09 01:02:38;;;;;;;12.93;1.70;;;6.80;99.90;;;;;;5052989;28;20085;-83
2022/01/09 01:05:05;;;;;;;12.73;1.90;;;6.80;99.90;;;;;;5054262;28;20109;-82
2022/01/09 01:07:30;;;;;;;10.75;1.55;;;7.00;99.90;;;;;;5054532;28;20025;-82
2022/01/09 01:09:59;;;;;;;20.58;2.40;;;6.90;99.90;;;;;;5053923;28;20198;-82
2022/01/09 01:12:29;;;;;;;10.20;2.63;;;6.90;99.90;;;;;;5054114;28;20082;-83
2022/01/09 01:14:55;;;;;;;17.15;2.47;;;7.00;99.90;;;;;;5054190;28;20111;-82
2022/01/09 01:17:22;;;;;;;19.15;2.55;;;6.90;99.90;;;;;;5053998;28;20028;-82
2022/01/09 01:19:48;;;;;;;15.85;3.03;;;6.90;99.90;;;;;;5054019;28;20707;-82
2022/01/09 01:22:15;;;;;;;16.80;2.60;;;6.80;99.90;;;;;;5052445;28;20116;-82
2022/01/09 01:24:42;;;;;;;22.00;2.20;;;6.90;99.90;;;;;;5053858;28;20021;-82
2022/01/09 01:27:07;;;;;;;24.15;3.58;;;6.80;99.90;;;;;;5053993;28;20041;-82
2022/01/09 01:29:34;;;;;;;11.88;2.17;;;6.90;99.90;;;;;;5053827;28;20068;-82
2022/01/09 01:32:00;;;;;;;14.77;2.80;;;6.90;99.90;;;;;;5052136;28;20116;-82
2022/01/09 01:34:25;;;;;;;18.40;2.60;;;6.70;99.90;;;;;;5052477;28;20775;-83
2022/01/09 01:36:51;;;;;;;22.38;3.17;;;6.80;99.90;;;;;;5052646;28;20051;-82
2022/01/09 01:39:16;;;;;;;31.05;3.72;;;6.90;99.90;;;;;;5053701;28;20409;-82
2022/01/09 01:41:42;;;;;;;26.65;3.83;;;6.80;99.90;;;;;;5052286;28;20037;-82
2022/01/09 01:44:10;;;;;;;17.85;2.75;;;7.00;99.90;;;;;;5053577;28;20021;-82
2022/01/09 01:46:36;;;;;;;24.27;3.97;;;6.90;99.90;;;;;;5053314;28;20021;-82
2022/01/09 01:49:02;;;;;;;23.73;3.08;;;6.80;99.90;;;;;;5053479;28;20035;-82
2022/01/09 01:51:28;;;;;;;22.50;3.42;;;6.90;99.90;;;;;;5053497;28;20112;-82
2022/01/09 01:53:55;;;;;;;25.35;3.20;;;7.00;99.90;;;;;;5053206;28;20021;-82
2022/01/09 01:56:23;;;;;;;14.68;3.33;;;6.90;99.90;;;;;;5052122;28;20103;-82
2022/01/09 01:58:50;;;;;;;18.50;2.47;;;7.00;99.90;;;;;;5053477;28;20017;-82
2022/01/09 02:01:15;;;;;;;26.58;4.05;;;7.00;99.90;;;;;;5053357;28;20048;-82
2022/01/09 02:03:41;;;;;;;13.85;2.30;;;7.00;99.90;;;;;;5052411;28;20025;-82
2022/01/09 02:06:07;;;;;;;23.50;2.63;;;6.80;99.90;;;;;;5052228;28;20032;-82
2022/01/09 02:08:32;;;;;;;29.52;5.57;;;6.90;99.90;;;;;;5052959;28;20044;-82
2022/01/09 02:10:58;;;;;;;24.65;4.72;;;6.80;99.90;;;;;;5053556;28;20519;-82
2022/01/09 02:13:24;;;;;;;27.88;4.25;;;6.90;99.90;;;;;;5053323;28;20116;-82
2022/01/09 02:15:49;;;;;;;18.27;2.90;;;6.90;99.90;;;;;;5053295;28;20017;-82
2022/01/09 02:18:17;;;;;;;29.55;3.50;;;6.70;99.90;;;;;;5052901;28;20100;-82
2022/01/09 02:20:43;;;;;;;21.27;3.78;;;6.70;99.90;;;;;;5051643;28;20112;-82
2022/01/09 02:23:11;;;;;;;20.92;3.90;;;6.80;99.90;;;;;;5052308;28;20447;-82
2022/01/09 02:26:02;;;;;;;20.58;2.65;;;6.70;99.90;;;;;;5033948;28;20013;-82
2022/01/09 02:28:29;;;;;;;20.63;4.05;;;6.80;99.90;;;;;;5033611;28;20152;-82
2022/01/09 02:31:09;;;;;;;16.30;2.13;;;6.70;99.90;;;;;;5051789;28;20120;-81
2022/01/09 02:33:35;;;;;;;17.23;3.33;;;6.70;99.90;;;;;;5053508;28;20020;-82
2022/01/09 02:36:01;;;;;;;24.83;3.03;;;6.80;99.90;;;;;;5052905;28;20082;-82
2022/01/09 02:38:26;;;;;;;18.83;2.53;;;6.90;99.90;;;;;;5052886;28;20104;-82
2022/01/09 02:40:54;;;;;;;24.13;2.80;;;6.70;99.90;;;;;;5052540;28;20036;-82
2022/01/09 02:43:21;;;;;;;23.35;2.40;;;6.70;99.90;;;;;;5052975;28;20017;-82
2022/01/09 02:45:53;;;;;;;23.83;3.13;;;6.70;99.90;;;;;;5052260;28;20025;-82
2022/01/09 02:48:19;;;;;;;18.23;2.75;;;6.80;99.90;;;;;;5052836;28;20500;-81
2022/01/09 02:50:59;;;;;;;25.70;2.28;;;6.80;99.90;;;;;;5052756;28;20025;-82
2022/01/09 02:53:26;;;;;;;10.00;2.10;;;6.80;99.90;;;;;;5053006;28;20021;-82
2022/01/09 02:55:52;;;;;;;17.02;2.20;;;6.70;99.90;;;;;;5051425;28;20025;-81
2022/01/09 02:58:17;;;;;;;24.92;3.15;;;6.80;99.90;;;;;;5052984;28;20384;-81
2022/01/09 03:00:44;;;;;;;18.38;3.30;;;6.70;99.90;;;;;;5052573;28;20388;-82
2022/01/09 03:03:11;;;;;;;13.98;1.98;;;6.70;99.90;;;;;;5052603;28;20025;-81
2022/01/09 03:05:36;;;;;;;21.65;2.75;;;6.70;99.90;;;;;;5052611;28;20017;-81
2022/01/09 03:08:02;;;;;;;14.30;2.05;;;6.80;99.90;;;;;;5052335;28;20048;-81
2022/01/09 03:10:28;;;;;;;19.85;2.90;;;6.80;99.90;;;;;;5052605;28;20017;-81
2022/01/09 03:12:58;;;;;;;13.10;3.00;;;6.70;99.90;;;;;;5052577;28;20032;-82
2022/01/09 03:15:25;;;;;;;13.13;2.13;;;6.80;99.90;;;;;;5051292;28;20489;-82
2022/01/09 03:17:52;;;;;;;14.32;2.85;;;6.70;99.90;;;;;;5052498;28;20110;-82
2022/01/09 03:20:21;;;;;;;21.65;2.70;;;6.70;99.90;;;;;;5052592;28;20021;-81
2022/01/09 03:22:47;;;;;;;16.40;2.15;;;6.70;99.90;;;;;;5052363;28;20104;-81
2022/01/09 03:25:13;;;;;;;15.38;2.13;;;6.60;99.90;;;;;;5052464;28;20535;-81
2022/01/09 03:27:40;;;;;;;18.08;2.08;;;6.70;99.90;;;;;;5052493;28;20017;-81
2022/01/09 03:30:09;;;;;;;18.40;2.05;;;6.60;99.90;;;;;;5052310;28;20481;-81
2022/01/09 03:32:36;;;;;;;20.10;3.17;;;6.50;99.90;;;;;;5052406;28;20025;-81
2022/01/09 03:35:03;;;;;;;17.88;3.00;;;6.60;99.90;;;;;;5055779;28;20013;-81
2022/01/09 03:37:28;;;;;;;15.80;2.10;;;6.50;99.90;;;;;;5056154;28;20017;-81
2022/01/09 03:39:54;;;;;;;10.38;2.45;;;6.50;99.90;;;;;;5056019;28;20388;-81
2022/01/09 03:42:20;;;;;;;14.73;2.50;;;6.50;99.90;;;;;;5055981;28;20043;-81
2022/01/09 03:44:45;;;;;;;18.73;3.03;;;6.50;99.90;;;;;;5056006;28;20017;-81
2022/01/09 03:47:11;;;;;;;16.52;2.40;;;6.40;99.90;;;;;;5054726;28;20025;-81
2022/01/09 03:49:37;;;;;;;14.82;1.63;;;6.40;99.90;;;;;;5054631;28;20025;-81
2022/01/09 03:52:03;;;;;;;21.08;3.22;;;6.30;99.90;;;;;;5055858;28;20108;-81
2022/01/09 03:54:28;;;;;;;16.13;1.88;;;6.30;99.90;;;;;;5055714;28;20013;-81
2022/01/09 03:56:54;;;;;;;16.08;2.10;;;6.10;99.90;;;;;;5055779;28;20729;-81
2022/01/09 03:59:29;;;;;;;12.25;2.30;;;6.20;99.90;;;;;;5054326;28;20029;-81
2022/01/09 04:01:54;;;;;;;12.18;2.13;;;6.30;99.90;;;;;;5055637;28;20112;-82
2022/01/09 04:04:20;;;;;;;17.35;2.03;;;6.30;99.90;;;;;;5055509;28;20059;-81
2022/01/09 04:06:49;;;;;;;15.55;2.63;;;6.40;99.90;;;;;;5055474;28;20064;-81
2022/01/09 04:09:19;;;;;;;16.98;2.60;;;6.30;99.90;;;;;;5055146;28;20155;-82
2022/01/09 04:11:47;;;;;;;14.35;1.90;;;6.40;99.90;;;;;;5054258;28;20037;-81
2022/01/09 04:14:13;;;;;;;18.30;2.30;;;6.40;99.90;;;;;;5055458;28;20028;-81
2022/01/09 04:16:39;;;;;;;10.82;1.77;;;6.40;99.90;;;;;;5055780;28;20027;-81
2022/01/09 04:19:05;;;;;;;13.85;1.52;;;6.40;99.90;;;;;;5055161;28;20021;-81
2022/01/09 04:21:30;;;;;;;16.35;2.10;;;6.30;99.90;;;;;;5055267;28;20155;-81
2022/01/09 04:23:56;;;;;;;12.73;1.23;;;6.40;99.90;;;;;;5053937;28;20032;-81
2022/01/09 04:26:22;;;;;;;9.32;1.17;;;6.40;99.90;;;;;;5055208;28;20021;-81
2022/01/09 04:28:48;;;;;;;17.02;1.80;;;6.40;99.90;;;;;;5055165;28;20017;-81
2022/01/09 04:31:15;;;;;;;15.35;2.13;;;6.30;99.90;;;;;;5055128;28;20079;-81
2022/01/09 04:33:42;;;;;;;11.00;1.77;;;6.30;99.90;;;;;;5055250;28;20028;-81
2022/01/09 04:36:08;;;;;;;17.40;2.75;;;6.20;99.90;;;;;;5053763;28;20024;-81
2022/01/09 04:38:33;;;;;;;14.77;1.98;;;6.20;99.90;;;;;;5053538;28;20021;-81
2022/01/09 04:40:59;;;;;;;17.80;2.35;;;6.20;99.90;;;;;;5054877;28;20647;-81
2022/01/09 04:43:27;;;;;;;14.05;2.47;;;6.20;99.90;;;;;;5055116;28;20397;-81
2022/01/09 04:45:52;;;;;;;9.60;2.00;;;6.10;99.90;;;;;;5054366;28;20109;-81
2022/01/09 04:48:18;;;;;;;10.48;1.67;;;6.20;99.90;;;;;;5054703;28;20048;-81
2022/01/09 04:50:45;;;;;;;12.02;1.98;;;6.00;99.90;;;;;;5054461;28;20389;-81
2022/01/09 04:53:10;;;;;;;10.60;1.63;;;6.10;99.90;;;;;;5054885;28;20017;-81
2022/01/09 04:55:42;;;;;;;15.60;1.67;;;6.10;99.90;;;;;;5054438;28;20025;-81
2022/01/09 04:58:09;;;;;;;6.43;1.45;;;6.10;99.90;;;;;;5053351;28;20771;-81
2022/01/09 05:00:35;;;;;;;12.93;1.48;;;6.00;99.90;;;;;;5054824;28;20075;-81
2022/01/09 05:03:01;;;;;;;8.82;1.40;;;6.10;99.90;;;;;;5053081;28;20036;-81
2022/01/09 05:05:26;;;;;;;12.23;1.70;;;6.00;99.90;;;;;;5053122;28;20021;-81
2022/01/09 05:07:52;;;;;;;11.15;1.60;;;6.10;99.90;;;;;;5054391;28;20052;-81
2022/01/09 05:10:18;;;;;;;16.67;2.00;;;6.10;99.90;;;;;;5052950;28;20040;-81
2022/01/09 05:12:43;;;;;;;19.02;2.53;;;6.00;99.90;;;;;;5054348;28;20029;-81
2022/01/09 05:15:12;;;;;;;18.05;1.92;;;6.00;99.90;;;;;;5053092;28;20021;-81
2022/01/09 05:17:38;;;;;;;12.43;1.92;;;6.00;99.90;;;;;;5054424;28;20028;-81
2022/01/09 05:20:04;;;;;;;13.82;2.03;;;6.00;99.90;;;;;;5054259;28;20385;-81
2022/01/09 05:22:30;;;;;;;7.18;1.40;;;5.90;99.90;;;;;;5054002;28;20040;-81
2022/01/09 05:25:02;;;;;;;7.45;1.38;;;6.00;99.90;;;;;;5054080;28;20028;-81
2022/01/09 05:27:27;;;;;;;10.95;1.50;;;6.00;99.90;;;;;;5054465;28;20083;-81
2022/01/09 05:29:53;;;;;;;11.05;2.05;;;5.90;99.90;;;;;;5053969;28;20030;-81
2022/01/09 05:32:19;;;;;;;7.50;1.50;;;5.90;99.90;;;;;;5052689;28;20027;-81
2022/01/09 05:34:45;;;;;;;15.80;1.95;;;5.80;99.90;;;;;;5052654;28;20025;-81
2022/01/09 05:37:10;;;;;;;14.30;1.58;;;5.80;99.90;;;;;;5053839;28;20056;-81
2022/01/09 05:39:36;;;;;;;7.13;1.40;;;5.90;99.90;;;;;;5053723;28;20025;-81
2022/01/09 05:42:05;;;;;;;10.45;1.60;;;5.80;99.90;;;;;;5053641;28;20029;-81
2022/01/09 05:44:32;;;;;;;11.52;1.60;;;5.80;99.90;;;;;;5053628;28;20032;-81
2022/01/09 05:47:01;;;;;;;14.07;2.58;;;5.70;99.90;;;;;;5053911;28;20028;-81
2022/01/09 05:49:27;;;;;;;10.90;1.38;;;5.70;99.90;;;;;;5053771;28;20395;-81
2022/01/09 05:51:52;;;;;;;9.77;2.17;;;5.50;99.90;;;;;;5053656;28;20480;-81
2022/01/09 05:54:18;;;;;;;14.00;1.80;;;5.50;99.90;;;;;;5053521;28;20362;-81
2022/01/09 05:56:44;;;;;;;9.15;1.48;;;5.50;99.90;;;;;;5052931;28;20078;-81
2022/01/09 05:59:09;;;;;;;7.90;1.55;;;5.40;99.90;;;;;;5051871;28;20021;-81
2022/01/09 06:01:35;;;;;;;9.32;1.08;;;5.30;99.90;;;;;;5053146;28;20045;-81
2022/01/09 06:04:02;;;;;;;9.98;1.50;;;5.40;99.90;;;;;;5053492;28;20384;-81
2022/01/09 06:06:27;;;;;;;12.20;1.25;;;5.30;99.90;;;;;;5053405;28;20465;-81
2022/01/09 06:08:53;;;;;;;8.00;1.50;;;5.30;99.90;;;;;;5051947;28;20090;-81
2022/01/09 06:11:18;;;;;;;10.70;1.30;;;5.40;99.90;;;;;;5052132;28;20393;-81
2022/01/09 06:13:44;;;;;;;11.57;1.92;;;5.30;99.90;;;;;;5052136;28;20021;-81
2022/01/09 06:16:09;;;;;;;10.88;1.10;;;5.30;99.90;;;;;;5053265;28;20024;-81
2022/01/09 06:18:35;;;;;;;9.95;1.92;;;5.30;99.90;;;;;;5053469;28;20036;-81
2022/01/09 06:21:01;;;;;;;4.72;1.30;;;5.30;99.90;;;;;;5052807;28;20119;-81
2022/01/09 06:23:26;;;;;;;8.30;1.13;;;5.40;99.90;;;;;;5051795;28;20024;-81
2022/01/09 06:25:52;;;;;;;9.43;1.23;;;5.60;99.90;;;;;;5052911;28;20377;-81
2022/01/09 06:28:18;;;;;;;10.57;1.40;;;5.60;99.90;;;;;;5053137;28;20021;-81
2022/01/09 06:30:45;;;;;;;8.07;2.38;;;5.60;99.90;;;;;;5053022;28;20029;-81
2022/01/09 06:33:11;;;;;;;9.32;1.40;;;5.60;99.90;;;;;;5053098;28;20021;-81
2022/01/09 06:35:38;;;;;;;12.38;0.90;;;5.50;99.90;;;;;;5051765;28;20055;-81
2022/01/09 06:38:05;;;;;;;7.57;1.00;;;5.60;99.90;;;;;;5053444;28;20029;-81
2022/01/09 06:40:31;;;;;;;8.70;1.63;;;5.50;99.90;;;;;;5052783;28;20028;-81
2022/01/09 06:42:57;;;;;;;10.32;1.73;;;5.70;99.90;;;;;;5052902;28;20029;-81
2022/01/09 06:45:24;;;;;;;8.57;1.23;;;5.70;99.90;;;;;;5045364;28;20148;-81
2022/01/09 06:47:51;;;;;;;8.75;1.45;;;5.80;99.90;;;;;;5048606;28;20025;-80
2022/01/09 06:50:16;;;;;;;11.32;1.15;;;5.80;99.90;;;;;;5048716;28;20107;-80
2022/01/09 06:52:42;;;;;;;9.90;1.67;;;5.80;99.90;;;;;;5031791;28;20120;-81
2022/01/09 06:55:09;;;;;;;13.13;1.40;;;5.80;99.90;;;;;;5049879;28;20048;-81
2022/01/09 06:57:34;;;;;;;6.13;1.15;;;5.70;99.90;;;;;;5052693;28;20681;-81
2022/01/09 07:00:00;;;;;;;13.75;1.58;;;5.70;99.90;;;;;;5048781;28;20101;-80
2022/01/09 07:02:26;;;;;;;7.78;1.10;;;5.80;99.90;;;;;;5047731;28;20045;-81
2022/01/09 07:04:51;;;;;;;11.30;1.70;;;5.80;99.90;;;;;;5046429;28;20021;-82
2022/01/09 07:07:17;;;;;;;10.63;1.30;;;5.90;99.90;;;;;;5035316;28;20060;-82
2022/01/09 07:09:42;;;;;;;14.45;1.98;;;5.80;99.90;;;;;;5040964;28;20038;-82
2022/01/09 07:12:09;;;;;;;9.75;1.40;;;5.90;99.90;;;;;;5036253;28;20116;-82
2022/01/09 07:14:35;;;;;;;10.63;1.65;;;5.80;99.90;;;;;;5048917;28;20099;-82
2022/01/09 07:17:01;;;;;;;10.18;1.45;;;5.60;99.90;;;;;;5053660;28;20540;-82
2022/01/09 07:19:27;;;;;;;10.30;1.95;;;5.50;99.90;;;;;;5038183;28;20097;-82
2022/01/09 07:21:52;;;;;;;6.18;1.13;;;5.30;99.90;;;;;;5053643;28;20116;-82
2022/01/09 07:24:18;;;;;;;6.15;1.50;;;5.20;99.90;;;;;;5053838;28;20052;-83
2022/01/09 07:26:44;;;;;;;13.05;1.67;;;5.20;99.90;;;;;;5053841;28;20063;-82
2022/01/09 07:29:09;;;;;;;13.90;2.03;;;5.30;99.90;;;;;;5053852;28;20061;-82
2022/01/09 07:31:35;;;;;;;13.20;2.30;;;5.30;99.90;;;;;;5053578;28;20024;-82
2022/01/09 07:34:00;;;;;;;10.13;1.40;;;5.20;99.90;;;;;;5052565;28;20449;-82
2022/01/09 07:36:26;;;;;;;13.13;1.52;;;5.00;99.90;;;;;;5051945;28;20087;-82
2022/01/09 07:38:51;;;;;;;8.98;1.83;;;5.10;99.90;;;;;;5053602;28;20053;-82
2022/01/09 07:41:17;;;;;;;10.43;1.73;;;5.00;99.90;;;;;;5053378;28;20036;-82
2022/01/09 07:43:43;;;;;;;8.90;1.77;;;5.00;99.90;;;;;;5053631;28;20047;-82
2022/01/09 07:46:09;;;;;;;11.27;1.75;;;4.90;99.90;;;;;;5053444;28;20393;-82
2022/01/09 07:48:34;;;;;;;12.68;1.73;;;4.80;99.90;;;;;;5053404;28;20040;-82
2022/01/09 07:51:00;;;;;;;6.28;0.88;;;4.80;99.90;;;;;;5053296;28;20041;-82
2022/01/09 07:53:25;;;;;;;10.13;1.10;;;4.70;99.90;;;;;;5049101;28;20040;-80
2022/01/09 07:55:52;;;;;;;8.13;1.17;;;4.60;99.90;;;;;;5052171;28;20025;-80
2022/01/09 07:58:18;;;;;;;6.85;2.03;;;4.50;99.90;;;;;;5053342;28;20025;-81
2022/01/09 08:00:44;;;;;;;6.32;1.05;;;4.60;99.90;;;;;;5053175;28;20480;-80
2022/01/09 08:03:11;;;;;;;11.57;1.20;;;4.50;99.90;;;;;;5053148;28;20040;-82
2022/01/09 08:05:36;;;;;;;8.38;1.52;;;4.40;99.90;;;;;;5052906;28;20036;-82
2022/01/09 08:08:02;;;;;;;13.15;1.30;;;4.30;99.90;;;;;;5045733;28;20021;-81
2022/01/09 08:10:27;;;;;;;11.32;1.75;;;4.50;99.90;;;;;;5048142;28;20041;-82
2022/01/09 08:12:53;;;;;;;8.95;1.80;;;4.60;99.90;;;;;;5049515;28;20029;-81
2022/01/09 08:15:18;;;;;;;9.00;1.63;;;4.90;99.90;;;;;;5052595;28;20021;-82
2022/01/09 08:17:45;;;;;;;9.35;1.77;;;4.80;99.90;;;;;;5049855;28;20020;-82
2022/01/09 08:20:14;;;;;;;8.80;1.33;;;5.00;99.90;;;;;;5045093;28;20021;-82
2022/01/09 08:22:41;;;;;;;7.93;1.10;;;5.10;99.90;;;;;;5046375;28;20036;-82
2022/01/09 08:25:11;;;;;;;2.95;0.80;;;5.20;99.90;;;;;;5036308;28;20377;-82
2022/01/09 08:27:37;;;;;;;2.80;0.90;;;5.30;99.90;;;;;;5044337;28;20025;-82
2022/01/09 08:30:05;;;;;;;5.40;1.10;;;5.30;99.90;;;;;;5037614;28;20024;-82
2022/01/09 08:32:30;;;;;;;8.52;1.30;;;5.20;99.90;;;;;;5043520;28;20020;-82
2022/01/09 08:34:56;;;;;;;6.05;1.02;;;5.10;99.90;;;;;;5047094;28;20497;-82
2022/01/09 08:37:21;;;;;;;6.28;1.02;;;5.20;99.90;;;;;;5041508;28;20032;-82
2022/01/09 08:39:47;;;;;;;3.45;0.70;;;5.30;99.90;;;;;;5047753;28;20052;-82
2022/01/09 08:42:13;;;;;;;4.30;0.77;;;5.40;99.90;;;;;;5052430;28;20107;-82
2022/01/09 08:44:39;;;;;;;3.45;0.70;;;5.30;99.90;;;;;;5041713;28;20488;-82
2022/01/09 08:47:05;;;;;;;4.80;0.63;;;5.30;99.90;;;;;;5044280;28;20541;-83
2022/01/09 08:49:30;;;;;;;10.15;1.88;;;5.30;99.90;;;;;;5038083;28;20029;-83
2022/01/09 08:51:56;;;;;;;9.68;1.08;;;5.30;99.90;;;;;;5050249;28;20025;-83
2022/01/09 08:54:22;;;;;;;5.35;0.90;;;5.30;99.90;;;;;;5035268;28;20075;-83
2022/01/09 08:56:48;;;;;;;1.67;0.52;;;5.30;99.90;;;;;;5038346;28;20017;-83
2022/01/09 08:59:13;;;;;;;3.03;0.52;;;5.30;99.90;;;;;;5043716;28;20053;-83
2022/01/09 09:01:39;;;;;;;0.47;0.25;;;5.20;99.90;;;;;;5048425;28;20098;-83
2022/01/09 09:04:05;;;;;;;2.08;0.30;;;5.20;99.90;;;;;;5043141;28;20029;-83
2022/01/09 09:06:31;;;;;;;2.58;1.05;;;5.20;99.90;;;;;;5046494;28;20116;-83
2022/01/09 09:08:56;;;;;;;4.63;0.30;;;5.20;99.90;;;;;;5050214;28;20436;-83
2022/01/09 09:11:22;;;;;;;2.30;0.50;;;5.10;99.90;;;;;;5051979;28;20029;-83
2022/01/09 09:13:47;;;;;;;10.07;2.00;;;5.30;99.90;;;;;;5051661;28;20075;-83
2022/01/09 09:16:15;;;;;;;9.45;2.05;;;5.30;99.90;;;;;;5051290;28;20108;-83
2022/01/09 09:18:43;;;;;;;4.97;1.25;;;5.60;99.90;;;;;;5048375;28;20021;-83
2022/01/09 09:21:09;;;;;;;4.40;0.50;;;5.70;99.90;;;;;;5052339;28;20117;-83
2022/01/09 09:23:35;;;;;;;8.35;0.98;;;5.60;99.90;;;;;;5051970;28;20017;-82
2022/01/09 09:26:00;;;;;;;6.20;0.70;;;5.70;99.90;;;;;;5051453;28;20106;-82
2022/01/09 09:28:26;;;;;;;8.25;1.15;;;5.80;99.90;;;;;;5051600;28;20443;-82
2022/01/09 09:30:52;;;;;;;8.85;1.15;;;5.90;99.90;;;;;;5046682;28;20257;-83
2022/01/09 09:33:17;;;;;;;8.38;1.33;;;6.00;99.90;;;;;;5029804;28;20017;-83
2022/01/09 09:35:43;;;;;;;9.02;1.25;;;6.00;99.90;;;;;;5031959;28;20104;-83
2022/01/09 09:38:08;;;;;;;8.40;1.48;;;6.10;99.90;;;;;;5031488;28;20024;-83
2022/01/09 09:40:34;;;;;;;6.90;1.42;;;6.00;99.90;;;;;;5031361;28;20450;-83
2022/01/09 09:43:00;;;;;;;7.85;1.08;;;6.00;99.90;;;;;;5034132;28;20476;-83
2022/01/09 09:45:26;;;;;;;12.48;1.40;;;5.80;99.90;;;;;;5031544;28;20425;-83
2022/01/09 09:47:52;;;;;;;8.18;1.05;;;5.80;99.90;;;;;;5031777;28;20049;-83
2022/01/09 09:50:19;;;;;;;9.50;1.30;;;5.90;99.90;;;;;;5030278;28;20035;-82
2022/01/09 09:52:47;;;;;;;14.38;1.52;;;6.20;99.90;;;;;;5052442;28;20037;-82
2022/01/09 09:55:14;;;;;;;10.52;2.22;;;6.40;99.90;;;;;;5047148;28;20066;-82
2022/01/09 09:57:40;;;;;;;8.32;1.77;;;6.10;99.90;;;;;;5052611;28;20021;-82
2022/01/09 10:00:12;;;;;;;11.02;1.60;;;6.30;99.90;;;;;;5053757;28;20382;-82
2022/01/09 10:02:42;;;;;;;7.00;1.17;;;6.20;99.90;;;;;;5053981;28;20036;-82
2022/01/09 10:05:08;;;;;;;5.43;0.95;;;6.20;99.90;;;;;;5051295;28;20096;-82
2022/01/09 10:07:34;;;;;;;4.13;0.80;;;6.40;99.90;;;;;;5051606;28;20021;-82
2022/01/09 10:10:05;;;;;;;6.47;0.88;;;6.30;99.90;;;;;;5051184;28;20068;-82
2022/01/09 10:12:32;;;;;;;4.65;0.95;;;6.50;99.90;;;;;;5049073;28;20112;-82
2022/01/09 10:15:00;;;;;;;5.82;0.50;;;6.50;99.90;;;;;;5049997;28;20021;-82
2022/01/09 10:17:27;;;;;;;7.22;0.90;;;6.50;99.90;;;;;;5049982;28;20060;-82
2022/01/09 10:19:58;;;;;;;4.50;0.73;;;6.40;99.90;;;;;;5051257;28;20021;-82
2022/01/09 10:22:33;;;;;;;5.05;0.93;;;6.30;99.90;;;;;;5051125;28;20040;-82
2022/01/09 10:25:20;;;;;;;9.48;0.90;;;6.30;99.90;;;;;;5049745;28;20032;-82
2022/01/09 10:27:48;;;;;;;8.77;1.00;;;6.20;99.90;;;;;;5051129;28;20033;-82
2022/01/09 10:30:14;;;;;;;6.82;1.02;;;6.30;99.90;;;;;;5051050;28;20048;-82
2022/01/09 10:32:40;;;;;;;4.57;0.80;;;6.50;99.90;;;;;;5051039;28;20044;-82
2022/01/09 10:35:05;;;;;;;6.85;1.00;;;6.70;99.90;;;;;;5051281;28;20366;-82
2022/01/09 10:37:31;;;;;;;3.92;0.98;;;6.90;99.90;;;;;;5051099;28;20425;-82
2022/01/09 10:40:00;;;;;;;11.90;1.38;;;7.00;99.90;;;;;;5049597;28;20029;-81
2022/01/09 10:42:27;;;;;;;7.15;1.35;;;6.90;99.90;;;;;;5049563;28;20509;-82
2022/01/09 10:44:53;;;;;;;5.15;1.15;;;7.10;99.90;;;;;;5052659;28;20106;-82
2022/01/09 10:47:18;;;;;;;5.05;0.68;;;7.80;99.90;;;;;;5055066;28;20048;-82
2022/01/09 10:49:52;;;;;;;9.18;0.93;;;8.10;99.90;;;;;;5054917;28;20489;-82
2022/01/09 10:52:31;;;;;;;3.50;0.75;;;8.20;99.90;;;;;;5055170;28;20499;-81
2022/01/09 10:55:03;;;;;;;7.70;1.52;;;8.30;99.90;;;;;;5055867;28;20044;-82
2022/01/09 10:57:32;;;;;;;9.02;1.00;;;8.00;99.90;;;;;;5055892;28;20036;-82
2022/01/09 11:00:14;;;;;;;5.80;0.85;;;7.60;99.90;;;;;;5055950;28;20484;-82
2022/01/09 11:02:40;;;;;;;5.45;1.05;;;7.70;99.90;;;;;;5055798;28;20480;-82
2022/01/09 11:05:06;;;;;;;4.97;1.05;;;7.70;99.90;;;;;;5055466;28;20032;-83
2022/01/09 11:07:32;;;;;;;11.40;1.35;;;7.90;99.90;;;;;;5053421;28;20021;-82
2022/01/09 11:09:59;;;;;;;6.65;1.27;;;7.90;99.90;;;;;;5034426;28;20060;-83
2022/01/09 11:12:32;;;;;;;3.30;0.90;;;7.90;99.90;;;;;;5035855;28;20029;-83
2022/01/09 11:15:00;;;;;;;6.30;0.77;;;7.90;99.90;;;;;;5036822;28;20068;-83
2022/01/09 11:17:27;;;;;;;4.38;0.70;;;7.70;99.90;;;;;;5033921;28;20122;-83
2022/01/09 11:19:52;;;;;;;8.57;0.75;;;7.50;99.90;;;;;;5034055;28;20071;-83
2022/01/09 11:22:19;;;;;;;7.28;0.73;;;7.40;99.90;;;;;;5033337;28;20053;-82
2022/01/09 11:25:28;;;;;;;3.13;0.45;;;7.40;99.90;;;;;;5037478;28;20021;-82
2022/01/09 11:28:18;;;;;;;7.10;0.77;;;7.80;99.90;;;;;;5022725;28;20040;-82
2022/01/09 11:30:57;;;;;;;1.80;0.40;;;7.80;1.00;;;;;;5036527;28;20063;-82
2022/01/09 11:33:50;;;;;;;4.78;1.13;;;7.80;1.00;;;;;;5037241;28;20109;-82
2022/01/09 11:36:22;;;;;;;4.97;0.47;;;7.60;1.00;;;;;;5036495;28;20029;-82
2022/01/09 11:38:54;;;;;;;4.78;0.30;;;7.30;1.00;;;;;;5038454;28;20485;-83
2022/01/09 11:41:24;;;;;;;2.28;0.85;;;7.40;1.00;;;;;;5036942;28;20516;-82
2022/01/09 11:44:10;;;;;;;3.85;1.17;;;7.50;1.00;;;;;;5036707;28;20017;-82
2022/01/09 11:46:58;;;;;;;1.25;0.20;;;7.80;99.90;;;;;;5033566;28;20529;-82
2022/01/09 11:49:25;;;;;;;2.10;0.30;;;7.60;99.90;;;;;;5034086;28;20036;-82
2022/01/09 11:51:52;;;;;;;2.67;0.35;;;7.60;99.90;;;;;;5038031;28;20385;-82
2022/01/09 11:54:19;;;;;;;2.70;1.00;;;7.50;99.90;;;;;;5033709;28;20097;-82
2022/01/09 11:56:44;;;;;;;1.88;0.90;;;7.60;99.90;;;;;;5047285;28;20018;-83
2022/01/09 11:59:25;;;;;;;3.95;0.70;;;7.70;99.90;;;;;;5055962;28;20021;-82
2022/01/09 12:02:18;;;;;;;4.72;0.40;;;7.60;99.90;;;;;;5054591;28;20033;-83
2022/01/09 12:04:45;;;;;;;4.43;0.40;;;7.40;99.90;;;;;;5027675;28;20038;-82
2022/01/09 12:07:12;;;;;;;2.58;0.30;;;7.70;99.90;;;;;;5040178;28;20028;-82
2022/01/09 12:09:42;;;;;;;2.90;0.45;;;7.50;1.00;;;;;;5031752;28;20088;-83
2022/01/09 12:12:12;;;;;;;;;;;7.40;1.00;;;;;;5039381;28;20091;-83
2022/01/09 12:14:44;;;;;;;0.57;0.50;;;7.30;1.00;;;;;;5042409;28;19921;-83
2022/01/09 12:17:22;;;;;;;3.88;0.85;;;7.40;1.00;;;;;;5042229;28;20033;-83
2022/01/09 12:20:13;;;;;;;2.45;0.50;;;7.50;99.90;;;;;;5040323;28;20100;-82
2022/01/09 12:22:50;;;;;;;4.28;0.52;;;7.60;99.90;;;;;;5041099;28;20025;-83
2022/01/09 12:25:22;;;;;;;3.38;0.60;;;7.70;99.90;;;;;;5051544;28;20035;-82
2022/01/09 12:27:54;;;;;;;4.35;0.70;;;7.40;99.90;;;;;;5051400;28;20064;-82
2022/01/09 12:30:56;;;;;;;6.78;0.80;;;7.60;99.90;;;;;;5035857;28;20480;-82
2022/01/09 12:33:24;;;;;;;3.55;0.65;;;8.30;99.90;;;;;;5036188;28;20025;-83
2022/01/09 12:36:08;;;;;;;3.88;0.70;;;8.80;99.90;;;;;;5043184;28;20096;-82
2022/01/09 12:38:36;;;;;;;5.47;0.70;;;8.90;99.90;;;;;;5040838;28;20094;-82
2022/01/09 12:41:04;;;;;;;12.50;1.15;;;9.10;99.90;;;;;;5032790;28;20465;-82
2022/01/09 12:43:32;;;;;;;4.75;1.15;;;9.30;99.90;;;;;;5032999;28;20026;-82
2022/01/09 12:45:58;;;;;;;3.67;1.25;;;9.30;99.90;;;;;;5033025;28;20028;-83
2022/01/09 12:48:29;;;;;;;5.10;1.20;;;9.20;99.90;;;;;;5032747;28;20025;-82
2022/01/09 12:50:56;;;;;;;8.63;1.23;;;9.10;99.90;;;;;;5031810;28;20044;-82
2022/01/09 12:53:27;;;;;;;13.48;1.40;;;8.90;99.90;;;;;;5032449;28;20374;-83
2022/01/09 12:56:01;;;;;;;10.77;1.17;;;9.00;99.90;;;;;;5035112;28;20025;-82